Sonic Adventure (DX): Overall Rankings

Records: Times | Rings | Scores | Races | Bosses | Freestyle
Leaders: Times | Rings | Scores | Races | Bosses | Freestyle | Overall
Rank Order Asc Player Percent Points Date
1 Sonicspeedruner 98.4% 247 02-28-15
2 Gamepro011 97.5% 389 02-28-15
3 DarkPolarNight 96.5% 562 02-28-15
4 Jawzun 93.9% 973 02-28-15
5 Dashjump 91.8% 1306 02-28-15
6 DarkspinesSonic 91.0% 1445 02-28-15
7 Avento128bits 90.5% 1529 02-28-15
8 ike6252 90.3% 1552 02-28-15
9 F-Man 86.1% 2227 02-28-15
10 HyperSonic7701 85.3% 2360 02-28-15
11 Coolfansonic 84.3% 2525 02-28-15
12 yoshifan 83.9% 2591 02-28-15
13 frankoredstrato 83.3% 2687 02-28-15
14 TheRealShadnic 82.4% 2833 02-28-15
15 francisco 82.2% 2856 02-28-15
16 Marth 81.8% 2921 02-28-15
17 InferSaime 80.7% 3103 02-28-15
18 PfoSonic 80.3% 3165 02-28-15
19 Paragod 79.7% 3264 02-28-15
20 THC98 78.4% 3472 02-28-15
21 Stefan 76.5% 3773 02-28-15
22 RPGnutter 74.3% 4128 02-28-15
23 bertin 74.2% 4152 02-28-15
24 sonicam 71.9% 4514 02-28-15
25 Combo 66.0% 5473 02-28-15
26 SkyLights 64.8% 5659 02-28-15
27 TailsDash1999 63.8% 5823 02-28-15
28 Diamond 63.1% 5929 02-28-15
29 GerbilSoft 60.7% 6323 02-28-15
30 OmegaDJ 60.6% 6333 02-28-15
31 Auriman1 60.6% 6340 02-28-15
32 magnum12 59.6% 6497 02-28-15
33 Dawid8404 59.5% 6518 02-28-15
34 Thorn 57.6% 6824 02-28-15
35 P1 Pause 57.3% 6871 02-28-15
36 mike89 56.0% 7076 02-28-15
37 Groudon199 54.2% 7372 02-28-15
38 Dave Cramer 54.1% 7391 02-28-15
39 chainchumper 54.0% 7394 02-28-15
40 Parax 53.3% 7508 02-28-15
41 Shadow Jacky 53.1% 7553 02-28-15
42 Psymar 47.8% 8394 02-28-15
43 drminus 47.4% 8469 02-28-15
44 Chao_Fan 46.1% 8680 02-28-15
45 Arch 45.8% 8717 02-28-15
46 mauserman 45.6% 8759 02-28-15
47 Quartz 44.9% 8864 02-28-15
48 teamblackarms 43.9% 9022 02-28-15
49 Psyknux 43.7% 9058 02-28-15
50 James_Bertolli 43.1% 9149 02-28-15
51 NintenDan 42.5% 9248 02-28-15
52 Fr3nZy 42.0% 9330 02-28-15
53 Webber3000 42.0% 9337 02-28-15
54 Ring Rush 41.9% 9353 02-28-15
55 Turbos 41.8% 9358 02-28-15
56 Cream147 41.7% 9389 02-28-15
57 videogamemaster777 41.5% 9406 02-28-15
58 Siavash Tazari 41.3% 9454 02-28-15
59 buddychaos0415 40.8% 9522 02-28-15
60 SadisticMystic 40.1% 9638 02-28-15
61 eggFL 39.3% 9771 02-28-15
62 Redd 38.7% 9859 02-28-15
63 SB737 37.7% 10023 02-28-15
64 supersonicfan 36.5% 10224 02-28-15
65 FuzZerd 35.5% 10387 02-28-15
66 elecmouse101 34.7% 10503 02-28-15
67 supersonic465 34.6% 10525 02-28-15
68 Austinf 33.6% 10684 02-28-15
69 metanightmare22 33.1% 10774 02-28-15
70 Aitamen 33.0% 10777 02-28-15
71 dabestgamer 32.9% 10797 02-28-15
72 MiStEr_ShAoLiN 32.8% 10815 02-28-15
73 Cyan Ryan 32.8% 10816 02-28-15
74 itsPersonnal 31.9% 10965 02-28-15
75 Cybrax 30.9% 11115 02-28-15
76 Andrea Ritsu 30.8% 11138 02-28-15
77 danieldude 30.7% 11154 02-28-15
78 SilvertheAlmighty 30.7% 11158 02-28-15
79 VMU Player Banned 28.9% 11445 02-28-15
80 Omega Rafael Santos 28.3% 11535 02-28-15
81 Staf 28.3% 11539 02-28-15
82 The T 28.1% 11573 02-28-15
83 EngiNerd 27.8% 11622 02-28-15
84 lordmetalsonic 27.0% 11745 02-28-15
85 Hipertails12 26.7% 11792 02-28-15
86 welldooder64 26.4% 11844 02-28-15
87 Sondow 26.3% 11855 02-28-15
88 GreatStar 26.3% 11859 02-28-15
89 The Great Lord Mick 26.1% 11898 02-28-15
90 Mastakirby 26.0% 11909 02-28-15
91 LinksDarkArrows 25.9% 11926 02-28-15
92 Nimrod 25.6% 11979 02-28-15
93 Skylace 24.9% 12082 02-28-15
94 Rolken 23.5% 12313 02-28-15
95 Xia 22.0% 12556 02-28-15
96 Kogen Player Banned 21.8% 12580 02-28-15
97 Spinballwizard 21.7% 12598 02-28-15
98 Don 21.4% 12659 02-28-15
99 Miles9999 21.3% 12663 02-28-15
100 Cutiefox 21.3% 12664 02-28-15
101 f0rever_zer0 21.2% 12679 02-28-15
102 andres430 20.5% 12795 02-28-15
103 Cruizer 20.5% 12804 02-28-15
104 iSonicKid2K 20.2% 12846 02-28-15
105 SADXTryHard 19.8% 12913 02-28-15
106 GarnetPrincess 19.5% 12956 02-28-15
107 knuckles_sonic8 18.9% 13053 02-28-15
108 Team_Yoshi 18.4% 13138 02-28-15
109 KinkyCadence 18.0% 13199 02-28-15
110 The Knuckles Chao 17.9% 13208 02-28-15
111 FoxBoy 17.8% 13234 02-28-15
112 Termon 17.7% 13247 02-28-15
113 SonicWinDX 16.8% 13386 02-28-15
114 Sonic Singularity 15.6% 13583 02-28-15
115 Pokemonmaster888 15.6% 13584 02-28-15
116 BigAL49 14.6% 13749 02-28-15
117 SilverSonic 14.4% 13783 02-28-15
118 MPit08 14.3% 13793 02-28-15
119 Mo Player Banned 14.1% 13824 02-28-15
120 Cod4Scopes 13.4% 13937 02-28-15
121 HyperSonic64 13.4% 13943 02-28-15
122 booo95 13.3% 13960 02-28-15
123 Chawkk 13.2% 13978 02-28-15
124 SuperSonic101 13.0% 14010 02-28-15
125 paulie9990 13.0% 14012 02-28-15
126 Hunters13 12.8% 14032 02-28-15
127 Maxinfamily 12.8% 14044 02-28-15
128 Flying Fox 12.6% 14075 02-28-15
129 PsyBorg 12.5% 14081 02-28-15
130 Kanimayo_Jp 12.4% 14096 02-28-15
131 BrokenArthritis 12.3% 14116 02-28-15
132 LilZero 12.2% 14127 02-28-15
133 sonicspeed 11.7% 14213 02-28-15
134 Therio 11.7% 14217 02-28-15
135 douglas 11.5% 14238 02-28-15
136 Matt_TY 11.3% 14284 02-28-15
137 Cooljay 10.6% 14388 02-28-15
138 joecoolgames 10.5% 14404 02-28-15
139 SeaWolf 10.5% 14407 02-28-15
140 TFEC Headshot 10.0% 14495 02-28-15
141 welshmoose05 9.9% 14504 02-28-15
142 crazy1993 9.6% 14545 02-28-15
143 Mcshuggets 9.5% 14561 02-28-15
144 videogamer1014 9.3% 14596 02-28-15
145 imazor017 9.1% 14633 02-28-15
146 nuckrieg 9.1% 14634 02-28-15
147 SonicAD 9.1% 14638 02-28-15
148 niscool 9.0% 14642 02-28-15
149 SirTobbii 9.0% 14653 02-28-15
150 superjupi 8.8% 14681 02-28-15
151 Shadowthegreat 8.8% 14684 02-28-15
152 SaviourDC 8.5% 14731 02-28-15
153 iarebored 8.4% 14737 02-28-15
154 sonamyfan666 8.4% 14745 02-28-15
155 Werey 8.3% 14766 02-28-15
156 SonicKnuckles 8.3% 14769 02-28-15
157 adf 7.9% 14818 02-28-15
158 ArcticDragon 7.9% 14825 02-28-15
159 Megaman EXE565 7.8% 14844 02-28-15
160 Platformer 7.4% 14900 02-28-15
161 FocusSight64 7.3% 14919 02-28-15
162 timpkmn89 7.2% 14931 02-28-15
163 wheatrich 7.2% 14932 02-28-15
164 Swift Hobo 7.2% 14941 02-28-15
165 Rickyman48 7.0% 14966 02-28-15
166 KitsuneYamaro 6.8% 15002 02-28-15
167 Triseena 6.7% 15023 02-28-15
168 CyberShadow 6.5% 15048 02-28-15
169 dShadow 6.4% 15065 02-28-15
169 slade23 6.4% 15065 02-28-15
171 Starlight Sable 6.3% 15076 02-28-15
172 IsisDazs 6.2% 15097 02-28-15
173 BlankTH 6.1% 15120 02-28-15
174 Monkeh 5.8% 15165 02-28-15
175 Richied 5.7% 15172 02-28-15
176 DaDude 5.6% 15190 02-28-15
177 Zip 5.5% 15212 02-28-15
178 sonicd5 5.5% 15214 02-28-15
179 Kirbymon30 5.2% 15267 02-28-15
179 tal39h 5.2% 15267 02-28-15
181 soniccoloursunleashed 4.8% 15318 02-28-15
182 Drflash55 4.8% 15320 02-28-15
183 neaolas 4.7% 15347 02-28-15
184 Bass 4.7% 15348 02-28-15
185 superiorsonic 4.6% 15364 02-28-15
186 UninspiredUsername 4.5% 15369 02-28-15
187 Sonicsuperstar1 4.5% 15372 02-28-15
188 zapp 4.5% 15373 02-28-15
189 gamefreak1292 4.4% 15390 02-28-15
190 SonicU260 4.1% 15435 02-28-15
191 Chaos_Overlord 4.1% 15437 02-28-15
192 TakaRikka 4.0% 15457 02-28-15
193 Valfore 3.9% 15462 02-28-15
194 ShinigamiMachine 3.7% 15494 02-28-15
195 Regano1000 3.7% 15501 02-28-15
196 MK 3.6% 15516 02-28-15
197 Ace747 3.5% 15527 02-28-15
198 Illidan 3.3% 15574 02-28-15
199 Venick409 3.1% 15599 02-28-15
200 Mariobutch 3.1% 15605 02-28-15
201 Brian_pso 3.0% 15607 02-28-15
202 Sithwarrior26 3.0% 15608 02-28-15
203 TheChaosEmeraIds 2.9% 15627 02-28-15
204 ingx24 2.9% 15628 02-28-15
205 SkyBon 2.9% 15637 02-28-15
206 Nickson98 2.8% 15639 02-28-15
207 Fozer 2.8% 15651 02-28-15
208 sonic29887 2.7% 15657 02-28-15
209 FSSRandomvids 2.7% 15658 02-28-15
210 Colomb_30 2.7% 15660 02-28-15
211 TheUltraBlur 2.6% 15677 02-28-15
212 1stKirbyever 2.5% 15689 02-28-15
213 Th4tN1nj4Turtl3 2.3% 15720 02-28-15
214 Cort_pso 2.3% 15726 02-28-15
215 Doom-9 2.3% 15731 02-28-15
216 ieatatsonic 2.3% 15735 02-28-15
217 Mariosonic15 2.2% 15738 02-28-15
218 SuperSonic71087 2.2% 15747 02-28-15
219 MStitomix 2.1% 15756 02-28-15
220 HermitHelmet 2.1% 15760 02-28-15
221 Artie 2.0% 15772 02-28-15
222 Got4n 2.0% 15775 02-28-15
223 Jose_15 1.9% 15786 02-28-15
224 Questionguy555 1.9% 15787 02-28-15
225 a_moustache 1.9% 15794 02-28-15
226 djmat 1.9% 15798 02-28-15
227 sonicandamy 1.7% 15818 02-28-15
228 LancexExWx 1.7% 15822 02-28-15
229 son1cgu1tar 1.7% 15826 02-28-15
230 Heroes_Hater 1.7% 15827 02-28-15
231 Paixii 1.6% 15835 02-28-15
232 BallzeH 1.5% 15849 02-28-15
233 Mankster101 1.5% 15854 02-28-15
234 BecauseWarAnvil 1.5% 15857 02-28-15
235 Jamixesa 1.5% 15858 02-28-15
236 Shanekilz 1.4% 15868 02-28-15
236 SpiritDragon1995 1.4% 15868 02-28-15
238 Crydio 1.4% 15869 02-28-15
239 ReuelBrony 1.4% 15879 02-28-15
240 MarewBFN 1.3% 15885 02-28-15
240 stanski 1.3% 15885 02-28-15
242 Sonique Hedgehog 1.3% 15890 02-28-15
243 p0ker 1.2% 15900 02-28-15
244 Blue Infamy 1.2% 15901 02-28-15
245 ErrortheCucco 1.2% 15910 02-28-15
246 Arthas 1.2% 15911 02-28-15
247 Rikum22 1.1% 15913 02-28-15
248 sonic1001 1.1% 15921 02-28-15
249 WingedInsignia 1.1% 15923 02-28-15
250 syco1098 1.1% 15928 02-28-15
251 AJSIV 1.0% 15931 02-28-15
251 Sonic the Hedgehod16 1.0% 15931 02-28-15
253 Calfd 1.0% 15937 02-28-15
254 BlackArmsShadow 0.9% 15948 02-28-15
255 themachoman202 0.9% 15952 02-28-15
256 Ben1502 0.9% 15958 02-28-15
257 MastaToken 0.9% 15959 02-28-15
257 shadowblast63 Player Banned 0.9% 15959 02-28-15
259 Fivavoa 0.9% 15960 02-28-15
259 Greham Adelphis 0.9% 15960 02-28-15
261 Mr. Jones 0.8% 15962 02-28-15
262 darkstarblaze 0.8% 15963 02-28-15
262 ptorflaxendrosis 0.8% 15963 02-28-15
264 arcfx1985 0.8% 15964 02-28-15
265 Gvozdevik 0.8% 15967 02-28-15
265 Knuckles 0.8% 15967 02-28-15
267 FlandreScarlet9999vr 0.8% 15969 02-28-15
268 KaM Mark MaK 0.8% 15977 02-28-15
269 BeeAwwb 0.7% 15981 02-28-15
270 ShadouZaHejjihoggu 0.7% 15984 02-28-15
271 Sonic62 0.7% 15990 02-28-15
272 darkersupershadic 0.7% 15993 02-28-15
273 Sogeking 0.6% 15994 02-28-15
274 dragondragon18 0.6% 15997 02-28-15
274 Shadygamerfreak 0.6% 15997 02-28-15
276 Sarger001 0.6% 15998 02-28-15
276 SonicK100 0.6% 15998 02-28-15
278 Grady219 0.6% 15999 02-28-15
279 Jawaah 0.6% 16003 02-28-15
280 Antek 0.6% 16007 02-28-15
281 SilverK 0.6% 16008 02-28-15
282 Klaus 0.6% 16009 02-28-15
283 BioShadow 0.5% 16014 02-28-15
284 SpinDashMaster 0.5% 16015 02-28-15
285 Videogamer123 0.5% 16019 02-28-15
286 Egor305 0.4% 16033 02-28-15
286 oTaiIilLsS 0.4% 16033 02-28-15
288 isaihtb11 0.4% 16035 02-28-15
289 Mad Andy 0.4% 16036 02-28-15
289 OhNoes! 0.4% 16036 02-28-15
291 zaktu40 0.4% 16037 02-28-15
292 S-MS32X-S 0.4% 16039 02-28-15
293 gaara1234 0.4% 16040 02-28-15
294 gamed00d 0.4% 16041 02-28-15
295 Mister_Slick 0.3% 16051 02-28-15
296 Sonic06Fan 0.3% 16053 02-28-15
297 Rush Hero 0.3% 16054 02-28-15
298 SonicMega167 0.3% 16057 02-28-15
299 Iwannabelink 0.2% 16058 02-28-15
300 sonknuck23 0.2% 16063 02-28-15
301 gamer1245 0.2% 16068 02-28-15
302 DanielTheFalcon 0.2% 16069 02-28-15
303 Burningskull123 0.1% 16076 02-28-15
304 Sonicontherun 0.1% 16086 02-28-15
305 Lil_Dude 0.0% 16090 02-28-15
306 antiwwe 0.0% 16092 02-28-15
307 Cbwade15 0.0% 16096 02-28-15
307 Genuine Hedgehog 0.0% 16096 02-28-15
309 Tyrouble 0.0% 16099 02-28-15
310 MegabombBlade 0.0% 16106 02-28-15
310 neji_hyuuga 0.0% 16106 02-28-15
310 Over 0.0% 16106 02-28-15
310 sdj6707 Player Banned 0.0% 16106 02-28-15
310 Tran Sonic Fan Player Banned 0.0% 16106 02-28-15

This page is using the New Data Table System. [FUTURE]

Game ID: 3 | Category ID: 10
Hits: 62,502 | Hits This Month: 1 | DB Calls: 21 | Mem Usage: 5.44 MB | Time: 0.12s | Printable

The Sonic Center v3.9
Copyright 2003-2011 by The Sonic Center Team.